createdAt,value
2018-03-02T00:00:41.779Z,-7.70
2018-03-02T00:02:45.247Z,-7.70
2018-03-02T00:04:46.403Z,-7.80
2018-03-02T00:06:47.456Z,-7.80
2018-03-02T00:08:48.411Z,-7.80
2018-03-02T00:10:49.374Z,-7.90
2018-03-02T00:12:50.448Z,-7.90
2018-03-02T00:14:51.488Z,-7.90
2018-03-02T00:16:52.580Z,-7.90
2018-03-02T00:18:53.620Z,-7.90
2018-03-02T00:20:54.640Z,-7.90
2018-03-02T00:22:56.779Z,-7.90
2018-03-02T00:24:58.807Z,-7.90
2018-03-02T00:26:59.859Z,-8.00
2018-03-02T00:31:38.451Z,-8.00
2018-03-02T00:33:39.567Z,-8.00
2018-03-02T00:35:40.624Z,-8.00
2018-03-02T00:37:41.648Z,-8.00
2018-03-02T00:39:43.161Z,-8.10
2018-03-02T00:41:44.258Z,-8.00
2018-03-02T00:43:46.209Z,-8.10
2018-03-02T00:45:47.232Z,-8.10
2018-03-02T00:47:48.231Z,-8.20
2018-03-02T00:49:49.275Z,-8.10
2018-03-02T00:51:50.579Z,-8.10
2018-03-02T00:53:51.608Z,-8.10
2018-03-02T00:55:52.628Z,-8.10
2018-03-02T00:58:04.992Z,-8.10
2018-03-02T01:00:06.025Z,-8.20
2018-03-02T01:02:07.042Z,-8.20
2018-03-02T01:04:08.140Z,-8.20
2018-03-02T01:06:09.139Z,-8.20
2018-03-02T01:08:11.029Z,-8.20
2018-03-02T01:10:12.086Z,-8.20
2018-03-02T01:12:13.097Z,-8.20
2018-03-02T01:14:14.098Z,-8.30
2018-03-02T01:16:15.088Z,-8.30
2018-03-02T01:18:16.111Z,-8.30
2018-03-02T01:20:17.124Z,-8.40
2018-03-02T01:22:18.148Z,-8.30
2018-03-02T01:24:19.144Z,-8.30
2018-03-02T01:26:20.206Z,-8.30
2018-03-02T01:28:23.518Z,-8.30
2018-03-02T01:30:24.635Z,-8.40
2018-03-02T01:32:25.701Z,-8.30
2018-03-02T01:34:26.908Z,-8.40
2018-03-02T01:36:27.937Z,-8.30
2018-03-02T01:38:28.913Z,-8.40
2018-03-02T01:40:29.984Z,-8.40
2018-03-02T01:42:31.058Z,-8.40
2018-03-02T01:44:32.064Z,-8.40
2018-03-02T01:46:33.201Z,-8.40
2018-03-02T01:48:34.271Z,-8.40
2018-03-02T01:50:35.268Z,-8.40
2018-03-02T01:52:36.519Z,-8.50
2018-03-02T01:54:37.543Z,-8.50
2018-03-02T01:56:38.552Z,-8.50
2018-03-02T01:58:39.545Z,-8.50
2018-03-02T02:00:40.743Z,-8.40
2018-03-02T02:02:41.757Z,-8.60
2018-03-02T02:04:43.521Z,-8.60
2018-03-02T02:06:44.507Z,-8.60
2018-03-02T02:08:45.916Z,-8.50
2018-03-02T02:10:46.943Z,-8.50
2018-03-02T02:12:47.951Z,-8.60
2018-03-02T02:14:48.994Z,-8.60
2018-03-02T02:16:50.024Z,-8.60
2018-03-02T02:18:51.011Z,-8.60
2018-03-02T02:20:52.123Z,-8.60
2018-03-02T02:22:53.116Z,-8.60
2018-03-02T02:24:54.120Z,-8.60
2018-03-02T02:26:55.090Z,-8.60
2018-03-02T02:28:56.301Z,-8.60
2018-03-02T02:30:57.631Z,-8.60
2018-03-02T02:32:58.674Z,-8.70
2018-03-02T02:34:59.717Z,-8.70
2018-03-02T02:37:00.778Z,-8.80
2018-03-02T02:39:02.384Z,-8.80
2018-03-02T02:41:03.433Z,-8.80
2018-03-02T02:43:04.564Z,-8.80
2018-03-02T02:45:05.583Z,-8.80
2018-03-02T02:47:06.621Z,-8.80
2018-03-02T02:49:07.637Z,-8.80
2018-03-02T02:51:08.609Z,-8.80
2018-03-02T02:53:09.634Z,-8.80
2018-03-02T02:55:10.643Z,-8.90
2018-03-02T02:57:11.726Z,-8.90
2018-03-02T02:59:12.841Z,-8.90
2018-03-02T03:01:13.861Z,-8.90
2018-03-02T03:03:14.887Z,-8.90
2018-03-02T03:05:15.910Z,-8.90
2018-03-02T03:07:16.920Z,-8.90
2018-03-02T03:09:18.709Z,-8.90
2018-03-02T03:11:19.716Z,-8.90
2018-03-02T03:13:20.707Z,-8.90
2018-03-02T03:15:21.671Z,-8.90
2018-03-02T03:17:22.691Z,-9.00
2018-03-02T03:19:23.682Z,-9.00
2018-03-02T03:21:24.761Z,-9.00
2018-03-02T03:23:25.793Z,-9.00
2018-03-02T03:25:26.791Z,-9.00
2018-03-02T03:27:28.183Z,-9.10
2018-03-02T03:29:30.028Z,-9.00
2018-03-02T03:31:31.073Z,-9.10
2018-03-02T03:33:32.255Z,-9.10
2018-03-02T03:35:33.312Z,-9.10
2018-03-02T03:37:34.324Z,-9.10
2018-03-02T03:39:35.282Z,-9.00
2018-03-02T03:41:36.346Z,-9.10
2018-03-02T03:43:37.502Z,-9.10
2018-03-02T03:45:38.836Z,-9.20
2018-03-02T03:47:39.915Z,-9.10
2018-03-02T03:49:41.007Z,-9.20
2018-03-02T03:51:42.040Z,-9.20
2018-03-02T03:53:43.057Z,-9.20
2018-03-02T03:55:44.779Z,-9.30
2018-03-02T03:57:45.764Z,-9.30
2018-03-02T03:59:46.744Z,-9.30
2018-03-02T04:01:47.734Z,-9.30
2018-03-02T04:03:48.728Z,-9.30
2018-03-02T04:05:50.445Z,-9.30
2018-03-02T04:07:51.548Z,-9.40
2018-03-02T04:09:52.567Z,-9.40
2018-03-02T04:11:53.579Z,-9.40
2018-03-02T04:13:54.657Z,-9.40
2018-03-02T04:15:55.657Z,-9.40
2018-03-02T04:17:56.918Z,-9.50
2018-03-02T04:19:57.960Z,-9.50
2018-03-02T04:21:59.236Z,-9.50
2018-03-02T04:24:00.272Z,-9.50
2018-03-02T04:26:01.244Z,-9.50
2018-03-02T04:28:02.236Z,-9.50
2018-03-02T04:30:03.257Z,-9.60
2018-03-02T04:32:04.255Z,-9.60
2018-03-02T04:34:08.688Z,-9.50
2018-03-02T04:36:09.795Z,-9.50
2018-03-02T04:38:10.789Z,-9.60
2018-03-02T04:40:11.950Z,-9.50
2018-03-02T04:42:12.920Z,-9.60
2018-03-02T04:44:13.922Z,-9.60
2018-03-02T04:46:14.920Z,-9.60
2018-03-02T04:48:17.067Z,-9.60
2018-03-02T04:50:18.205Z,-9.60
2018-03-02T04:52:19.286Z,-9.70
2018-03-02T04:54:20.609Z,-9.60
2018-03-02T04:56:21.693Z,-9.70
2018-03-02T04:58:22.701Z,-9.80
2018-03-02T05:00:26.312Z,-9.70
2018-03-02T05:02:27.376Z,-9.70
2018-03-02T05:04:28.362Z,-9.70
2018-03-02T05:06:29.584Z,-9.70
2018-03-02T05:08:30.680Z,-9.70
2018-03-02T05:10:32.340Z,-9.70
2018-03-02T05:12:33.336Z,-9.80
2018-03-02T05:14:34.495Z,-9.80
2018-03-02T05:16:35.475Z,-9.80
2018-03-02T05:18:37.039Z,-9.80
2018-03-02T05:20:38.353Z,-9.80
2018-03-02T05:22:39.392Z,-9.90
2018-03-02T05:24:40.876Z,-9.90
2018-03-02T05:26:41.923Z,-9.90
2018-03-02T05:28:45.289Z,-9.90
2018-03-02T05:33:10.740Z,-10.00
2018-03-02T05:35:11.791Z,-10.00
2018-03-02T05:37:12.812Z,-10.00
2018-03-02T05:39:13.808Z,-10.10
2018-03-02T05:41:17.647Z,-10.10
2018-03-02T05:43:18.729Z,-10.10
2018-03-02T05:45:19.799Z,-10.10
2018-03-02T05:47:20.829Z,-10.20
2018-03-02T05:49:21.845Z,-10.10
2018-03-02T05:51:22.844Z,-10.10
2018-03-02T05:53:24.641Z,-10.10
2018-03-02T05:55:25.675Z,-10.10
2018-03-02T05:57:26.672Z,-10.20
2018-03-02T05:59:27.660Z,-10.30
2018-03-02T06:01:29.207Z,-10.20
2018-03-02T06:03:30.266Z,-10.20
2018-03-02T06:05:31.287Z,-10.10
2018-03-02T06:12:48.219Z,-10.10
2018-03-02T06:14:49.216Z,-10.10
2018-03-02T06:16:50.225Z,-10.20
2018-03-02T06:18:51.219Z,-10.10
2018-03-02T06:20:52.216Z,-10.10
2018-03-02T06:22:53.233Z,-10.10
2018-03-02T06:24:54.518Z,-10.10
2018-03-02T06:26:56.272Z,-10.10
2018-03-02T06:28:57.384Z,-10.20
2018-03-02T06:30:59.122Z,-10.10
2018-03-02T06:33:00.208Z,-10.10
2018-03-02T06:35:01.208Z,-10.10
2018-03-02T06:37:02.259Z,-10.20
2018-03-02T06:39:21.843Z,-10.10
2018-03-02T06:41:22.857Z,-10.10
2018-03-02T06:43:23.810Z,-10.00
2018-03-02T06:45:24.926Z,-9.80
2018-03-02T06:47:25.963Z,-9.80
2018-03-02T06:49:26.991Z,-9.70
2018-03-02T06:51:28.106Z,-9.60
2018-03-02T06:53:29.292Z,-9.50
2018-03-02T06:55:30.451Z,-9.60
2018-03-02T06:57:31.514Z,-9.30
2018-03-02T06:59:32.530Z,-9.10
2018-03-02T07:01:33.501Z,-9.10
2018-03-02T07:03:34.453Z,-8.90
2018-03-02T07:05:35.692Z,-8.80
2018-03-02T07:07:36.818Z,-8.80
2018-03-02T07:09:37.817Z,-9.00
2018-03-02T07:11:38.801Z,-8.60
2018-03-02T07:13:41.803Z,-8.50
2018-03-02T07:15:43.588Z,-8.40
2018-03-02T07:17:44.619Z,-8.70
2018-03-02T07:19:45.625Z,-8.40
2018-03-02T07:21:47.880Z,-8.40
2018-03-02T07:23:49.974Z,-8.20
2018-03-02T07:25:51.098Z,-8.10
2018-03-02T07:27:52.184Z,-7.70
2018-03-02T07:29:54.629Z,-7.80
2018-03-02T07:31:55.728Z,-7.90
2018-03-02T07:33:56.937Z,-7.40
2018-03-02T07:35:58.349Z,-7.20
2018-03-02T07:37:59.583Z,-7.10
2018-03-02T07:40:00.656Z,-7.20
2018-03-02T07:42:01.763Z,-7.10
2018-03-02T07:44:02.737Z,-6.70
2018-03-02T07:46:03.745Z,-6.30
2018-03-02T07:48:04.765Z,-6.50
2018-03-02T07:50:05.856Z,-6.00
2018-03-02T07:52:06.945Z,-5.80
2018-03-02T07:54:07.995Z,-5.90
2018-03-02T07:56:09.064Z,-5.80
2018-03-02T07:58:10.079Z,-5.40
2018-03-02T08:00:13.271Z,-5.90
2018-03-02T08:02:47.975Z,-5.80
2018-03-02T08:07:02.183Z,-5.80
2018-03-02T08:09:04.191Z,-6.20
2018-03-02T08:11:11.745Z,-5.50
2018-03-02T08:15:52.823Z,-5.20
2018-03-02T08:17:57.761Z,-4.90
2018-03-02T08:32:46.985Z,-4.50
2018-03-02T08:34:48.920Z,-4.80
2018-03-02T08:36:51.788Z,-4.50
2018-03-02T08:38:52.960Z,-4.30
2018-03-02T08:40:54.116Z,-4.50
2018-03-02T08:42:55.459Z,-4.10
2018-03-02T08:44:57.471Z,-3.50
2018-03-02T08:49:19.901Z,-3.80
2018-03-02T08:51:21.460Z,-3.20
2018-03-02T08:55:37.550Z,-4.10
2018-03-02T08:57:38.574Z,-3.90
2018-03-02T08:59:40.345Z,-3.70
2018-03-02T09:01:42.326Z,-3.80
2018-03-02T09:03:43.429Z,-4.20
2018-03-02T09:05:44.367Z,-4.00
2018-03-02T09:07:45.352Z,-4.40
2018-03-02T09:09:49.399Z,-4.80
2018-03-02T09:11:50.488Z,-4.80
2018-03-02T09:14:20.552Z,-4.60
2018-03-02T09:16:21.611Z,-4.60
2018-03-02T09:18:22.743Z,-4.40
2018-03-02T09:20:24.456Z,-3.90
2018-03-02T09:22:25.448Z,-3.90
2018-03-02T09:24:27.207Z,-3.50
2018-03-02T09:26:28.248Z,-3.60
2018-03-02T09:28:29.198Z,-3.10
2018-03-02T09:30:37.264Z,-2.30
2018-03-02T09:32:38.454Z,-2.30
2018-03-02T09:34:41.783Z,-2.20
2018-03-02T09:36:42.975Z,-2.20
2018-03-02T09:38:49.506Z,-2.00
2018-03-02T09:43:18.443Z,-1.20
2018-03-02T09:45:19.450Z,-0.50
2018-03-02T09:47:20.501Z,-0.60
2018-03-02T09:49:22.371Z,-0.60
2018-03-02T09:51:42.810Z,-0.60
2018-03-02T09:53:44.408Z,0.10
2018-03-02T09:55:45.409Z,-0.40
2018-03-02T09:57:46.715Z,-0.60
2018-03-02T09:59:52.715Z,-0.70
2018-03-02T10:01:53.881Z,-0.90
2018-03-02T10:03:54.887Z,-0.10
2018-03-02T10:05:55.892Z,0.50
2018-03-02T10:07:56.914Z,-0.30
2018-03-02T10:09:57.917Z,0.60
2018-03-02T10:11:58.968Z,0.10
2018-03-02T10:13:59.976Z,0.80
2018-03-02T10:16:01.025Z,0.90
2018-03-02T10:18:02.011Z,1.70
2018-03-02T10:20:03.008Z,1.60
2018-03-02T10:22:03.976Z,1.00
2018-03-02T10:24:05.071Z,1.00
2018-03-02T10:26:06.070Z,1.00
2018-03-02T10:28:07.131Z,1.30
2018-03-02T10:30:08.235Z,0.30
2018-03-02T10:32:09.194Z,1.00
2018-03-02T10:34:10.159Z,0.20
2018-03-02T10:36:11.163Z,1.50
2018-03-02T10:38:12.251Z,2.30
2018-03-02T10:40:13.289Z,1.90
2018-03-02T10:42:14.292Z,1.90
2018-03-02T10:44:16.659Z,2.00
2018-03-02T10:46:17.725Z,1.80
2018-03-02T10:48:19.255Z,1.90
2018-03-02T10:50:20.303Z,3.00
2018-03-02T10:52:23.490Z,1.70
2018-03-02T10:54:25.255Z,1.60
2018-03-02T10:56:26.687Z,2.20
2018-03-02T10:58:28.129Z,2.70
2018-03-02T11:00:35.391Z,1.70
2018-03-02T11:02:42.387Z,0.40
2018-03-02T11:04:46.326Z,1.80
2018-03-02T11:06:49.208Z,1.80
2018-03-02T11:08:50.202Z,0.90
2018-03-02T11:10:53.569Z,3.00
2018-03-02T11:12:56.722Z,3.10
2018-03-02T11:14:57.797Z,2.90
2018-03-02T11:16:58.844Z,2.70
2018-03-02T11:18:59.806Z,2.30
2018-03-02T11:21:00.772Z,2.30
2018-03-02T11:25:12.713Z,2.20
2018-03-02T11:27:13.877Z,3.50
2018-03-02T11:29:15.791Z,3.60
2018-03-02T11:31:16.852Z,3.20
2018-03-02T11:33:17.830Z,3.40
2018-03-02T11:35:20.439Z,4.10
2018-03-02T11:37:21.506Z,3.10
2018-03-02T11:39:22.461Z,3.40
2018-03-02T11:41:23.686Z,2.70
2018-03-02T11:43:24.752Z,3.40
2018-03-02T11:45:25.710Z,3.80
2018-03-02T11:47:26.718Z,3.30
2018-03-02T11:49:28.211Z,2.70
2018-03-02T11:51:29.199Z,4.10
2018-03-02T11:53:30.623Z,3.50
2018-03-02T11:55:31.683Z,3.50
2018-03-02T11:57:32.892Z,2.70
2018-03-02T11:59:34.615Z,4.40
2018-03-02T12:01:35.584Z,4.40
2018-03-02T12:03:37.286Z,4.90
2018-03-02T12:05:38.976Z,3.60
2018-03-02T12:07:40.074Z,4.10
2018-03-02T12:09:41.472Z,3.40
2018-03-02T12:11:42.558Z,3.20
2018-03-02T12:13:44.788Z,4.00
2018-03-02T12:15:53.875Z,3.20
2018-03-02T12:17:58.408Z,3.70
2018-03-02T12:19:59.473Z,3.70
2018-03-02T12:22:00.477Z,3.70
2018-03-02T12:24:01.485Z,4.10
2018-03-02T12:26:03.280Z,4.40
2018-03-02T12:28:04.699Z,4.30
2018-03-02T12:30:05.750Z,5.40
2018-03-02T12:32:06.766Z,5.20
2018-03-02T12:34:08.078Z,5.70
2018-03-02T12:36:09.144Z,5.30
2018-03-02T12:38:10.107Z,6.60
2018-03-02T12:42:36.439Z,5.30
2018-03-02T12:44:38.309Z,5.10
2018-03-02T12:46:39.223Z,5.60
2018-03-02T12:48:41.412Z,5.80
2018-03-02T12:50:42.692Z,5.60
2018-03-02T12:52:43.682Z,6.30
2018-03-02T12:54:44.877Z,6.60
2018-03-02T12:56:46.742Z,6.70
2018-03-02T12:58:48.231Z,7.00
2018-03-02T13:00:49.223Z,5.00
2018-03-02T13:02:50.185Z,6.50
2018-03-02T13:04:51.179Z,5.90
2018-03-02T13:06:52.138Z,5.70
2018-03-02T13:08:53.218Z,6.00
2018-03-02T13:10:54.476Z,5.50
2018-03-02T13:12:55.457Z,5.80
2018-03-02T13:14:56.437Z,6.00
2018-03-02T13:16:57.412Z,5.60
2018-03-02T13:18:58.641Z,6.30
2018-03-02T13:20:59.660Z,6.00
2018-03-02T13:23:00.609Z,5.80
2018-03-02T13:25:01.556Z,5.90
2018-03-02T13:27:15.001Z,5.30
2018-03-02T13:29:16.179Z,5.60
2018-03-02T13:31:18.207Z,4.80
2018-03-02T13:33:31.493Z,5.50
2018-03-02T13:35:33.552Z,5.20
2018-03-02T13:37:34.708Z,4.30
2018-03-02T13:39:52.430Z,4.50
2018-03-02T13:42:00.420Z,4.50
2018-03-02T13:44:01.481Z,5.20
2018-03-02T13:46:02.538Z,4.60
2018-03-02T13:48:33.441Z,4.90
2018-03-02T13:50:34.488Z,5.40
2018-03-02T13:52:35.456Z,5.10
2018-03-02T13:54:36.546Z,4.60
2018-03-02T13:56:49.910Z,4.40
2018-03-02T13:58:51.095Z,4.90
2018-03-02T14:00:52.336Z,5.60
2018-03-02T14:03:05.744Z,5.40
2018-03-02T14:05:06.830Z,4.50
2018-03-02T14:07:07.845Z,4.90
2018-03-02T14:09:08.856Z,5.30
2018-03-02T14:11:09.824Z,4.90
2018-03-02T14:13:11.624Z,4.60
2018-03-02T14:15:12.627Z,4.60
2018-03-02T14:17:14.878Z,4.00
2018-03-02T14:19:15.838Z,3.90
2018-03-02T14:21:20.163Z,4.20
2018-03-02T14:23:22.824Z,3.70
2018-03-02T14:25:23.791Z,3.60
2018-03-02T14:27:25.132Z,3.70
2018-03-02T14:29:26.201Z,4.10
2018-03-02T14:31:27.267Z,3.20
2018-03-02T14:33:28.221Z,3.60
2018-03-02T14:35:29.268Z,3.60
2018-03-02T14:37:30.260Z,3.90
2018-03-02T14:39:31.297Z,3.40
2018-03-02T14:41:32.869Z,3.10
2018-03-02T14:43:34.028Z,3.40
2018-03-02T14:45:35.089Z,3.10
2018-03-02T14:47:37.248Z,4.00
2018-03-02T14:49:38.629Z,3.90
2018-03-02T14:51:39.662Z,1.90
2018-03-02T14:53:41.724Z,2.10
2018-03-02T14:55:43.092Z,2.30
2018-03-02T14:57:44.265Z,2.40
2018-03-02T14:59:45.230Z,2.20
2018-03-02T15:01:46.373Z,2.20
2018-03-02T15:03:47.343Z,2.40
2018-03-02T15:05:48.428Z,2.70
2018-03-02T15:07:49.363Z,2.60
2018-03-02T15:10:05.020Z,1.80
2018-03-02T15:12:06.446Z,1.70
2018-03-02T15:14:07.520Z,2.60
2018-03-02T15:16:08.598Z,1.90
2018-03-02T15:18:11.072Z,2.00
2018-03-02T15:22:18.675Z,2.00
2018-03-02T15:24:19.876Z,1.50
2018-03-02T15:26:22.138Z,1.50
2018-03-02T15:28:23.325Z,1.40
2018-03-02T15:30:24.492Z,1.60
2018-03-02T15:32:25.575Z,1.00
2018-03-02T15:34:26.640Z,1.10
2018-03-02T15:36:27.923Z,0.80
2018-03-02T15:38:29.803Z,0.20
2018-03-02T15:40:30.855Z,0.20
2018-03-02T15:42:31.914Z,0.30
2018-03-02T15:44:32.940Z,0.50
2018-03-02T15:46:33.912Z,0.60
2018-03-02T15:48:34.932Z,0.20
2018-03-02T15:50:35.921Z,0.30
2018-03-02T15:52:37.268Z,0.20
2018-03-02T15:54:39.364Z,-0.10
2018-03-02T15:56:40.800Z,-0.40
2018-03-02T15:58:41.816Z,-0.10
2018-03-02T16:00:42.835Z,-0.20
2018-03-02T16:02:43.800Z,-0.60
2018-03-02T16:04:45.562Z,-0.60
2018-03-02T16:06:46.507Z,-0.60
2018-03-02T16:08:47.469Z,-0.90
2018-03-02T16:10:48.406Z,-1.10
2018-03-02T16:12:52.895Z,-1.10
2018-03-02T16:14:53.885Z,-1.30
2018-03-02T16:16:55.469Z,-1.30
2018-03-02T16:18:56.629Z,-1.70
2018-03-02T16:26:14.247Z,-2.00
2018-03-02T16:28:15.325Z,-2.30
2018-03-02T16:30:16.434Z,-2.40
2018-03-02T16:32:17.616Z,-2.50
2018-03-02T16:34:18.805Z,-2.70
2018-03-02T16:36:20.002Z,-2.80
2018-03-02T16:38:21.154Z,-2.90
2018-03-02T16:40:22.292Z,-3.10
2018-03-02T16:42:28.027Z,-3.10
2018-03-02T16:44:29.193Z,-3.20
2018-03-02T16:46:30.210Z,-3.20
2018-03-02T16:48:31.148Z,-3.30
2018-03-02T16:50:32.096Z,-3.30
2018-03-02T16:59:47.703Z,-3.50
2018-03-02T17:01:49.020Z,-3.60
2018-03-02T17:03:56.488Z,-3.70
2018-03-02T17:06:00.337Z,-3.70
2018-03-02T17:08:22.975Z,-3.80
2018-03-02T17:10:38.894Z,-3.80
2018-03-02T17:12:40.203Z,-3.80
2018-03-02T17:14:41.305Z,-3.90
2018-03-02T17:16:57.474Z,-4.00
2018-03-02T17:21:37.056Z,-4.00
2018-03-02T17:23:38.328Z,-4.10
2018-03-02T17:25:39.332Z,-4.10
2018-03-02T17:27:40.303Z,-4.10
2018-03-02T17:29:42.120Z,-4.10
2018-03-02T17:31:45.528Z,-4.10
2018-03-02T17:33:46.538Z,-4.20
2018-03-02T17:35:47.582Z,-4.30
2018-03-02T17:37:48.536Z,-4.30
2018-03-02T17:39:50.388Z,-4.40
2018-03-02T17:41:51.409Z,-4.40
2018-03-02T17:43:52.720Z,-4.60
2018-03-02T17:45:53.996Z,-4.40
2018-03-02T18:11:44.277Z,-4.70
2018-03-02T18:13:49.798Z,-4.80
2018-03-02T18:15:50.805Z,-4.70
2018-03-02T18:17:52.524Z,-4.80
2018-03-02T18:19:57.968Z,-4.80
2018-03-02T18:24:50.620Z,-4.90
2018-03-02T18:26:51.734Z,-4.90
2018-03-02T18:28:53.093Z,-4.90
2018-03-02T18:30:55.412Z,-4.80
2018-03-02T18:32:56.927Z,-4.90
2018-03-02T18:34:58.068Z,-4.90
2018-03-02T18:36:59.075Z,-5.00
2018-03-02T18:39:00.208Z,-5.00
2018-03-02T18:41:01.321Z,-5.00
2018-03-02T18:43:03.194Z,-5.10
2018-03-02T18:45:04.420Z,-5.10
2018-03-02T18:47:05.469Z,-5.10
2018-03-02T18:49:21.248Z,-5.20
2018-03-02T18:51:22.286Z,-5.10
2018-03-02T18:53:23.280Z,-5.10
2018-03-02T18:55:24.281Z,-5.20
2018-03-02T19:00:28.476Z,-5.30
2018-03-02T19:02:51.051Z,-5.30
2018-03-02T19:04:52.427Z,-5.30
2018-03-02T19:06:53.415Z,-5.30
2018-03-02T19:11:31.746Z,-5.30
2018-03-02T19:13:32.776Z,-5.30
2018-03-02T19:15:33.790Z,-5.40
2018-03-02T19:20:04.598Z,-5.40
2018-03-02T19:22:05.711Z,-5.30
2018-03-02T19:24:06.827Z,-5.30
2018-03-02T19:35:50.626Z,-5.40
2018-03-02T19:37:52.350Z,-5.40
2018-03-02T19:39:57.150Z,-5.40
2018-03-02T19:41:58.471Z,-5.50
2018-03-02T19:44:00.065Z,-5.50
2018-03-02T19:46:01.183Z,-5.50
2018-03-02T19:48:03.347Z,-5.40
2018-03-02T19:50:04.453Z,-5.50
2018-03-02T19:52:25.678Z,-5.50
2018-03-02T19:54:26.692Z,-5.50
2018-03-02T19:56:27.647Z,-5.50
2018-03-02T19:58:29.448Z,-5.50
2018-03-02T20:00:30.901Z,-5.50
2018-03-02T20:02:31.942Z,-5.60
2018-03-02T20:04:32.912Z,-5.60
2018-03-02T20:06:55.529Z,-5.70
2018-03-02T20:11:26.861Z,-5.70
2018-03-02T20:13:44.384Z,-5.70
2018-03-02T20:15:46.095Z,-5.70
2018-03-02T20:17:51.536Z,-5.60
2018-03-02T20:19:55.615Z,-5.70
2018-03-02T20:34:57.150Z,-5.80
2018-03-02T20:39:42.368Z,-5.80
2018-03-02T20:41:50.498Z,-5.90
2018-03-02T20:44:52.006Z,-5.90
2018-03-02T20:51:51.396Z,-5.90
2018-03-02T20:53:52.416Z,-5.90
2018-03-02T20:55:53.452Z,-5.90
2018-03-02T21:00:22.423Z,-6.00
2018-03-02T21:02:23.472Z,-6.00
2018-03-02T21:04:50.260Z,-6.10
2018-03-02T21:06:51.314Z,-6.00
2018-03-02T21:14:20.913Z,-6.30
2018-03-02T21:16:21.917Z,-6.30
2018-03-02T21:18:22.919Z,-6.30
2018-03-02T21:22:52.413Z,-6.30
2018-03-02T21:27:02.451Z,-6.30
2018-03-02T21:31:41.810Z,-6.30
2018-03-02T21:33:42.954Z,-6.30
2018-03-02T21:35:44.061Z,-6.40
2018-03-02T21:37:45.190Z,-6.40
2018-03-02T21:40:06.556Z,-6.40
2018-03-02T21:42:20.575Z,-6.50
2018-03-02T21:44:25.738Z,-6.40
2018-03-02T21:46:29.326Z,-6.40
2018-03-02T21:48:30.670Z,-6.40
2018-03-02T21:50:35.704Z,-6.40
2018-03-02T21:52:38.798Z,-6.40
2018-03-02T21:55:04.901Z,-6.60
2018-03-02T22:01:30.281Z,-6.50
2018-03-02T22:03:31.504Z,-6.50
2018-03-02T22:05:32.525Z,-6.60
2018-03-02T22:07:33.486Z,-6.60
2018-03-02T22:09:34.906Z,-6.60
2018-03-02T22:11:35.991Z,-6.60
2018-03-02T22:13:37.083Z,-6.50
2018-03-02T22:15:38.096Z,-6.60
2018-03-02T22:17:39.866Z,-6.60
2018-03-02T22:19:40.942Z,-6.60
2018-03-02T22:21:41.979Z,-6.60
2018-03-02T22:23:43.067Z,-6.70
2018-03-02T22:28:11.586Z,-6.70
2018-03-02T22:30:12.550Z,-6.70
2018-03-02T22:32:15.092Z,-6.80
2018-03-02T22:39:14.662Z,-6.70
2018-03-02T22:49:08.838Z,-6.80
2018-03-02T22:53:41.559Z,-6.80
2018-03-02T23:03:35.773Z,-6.80
2018-03-02T23:05:36.839Z,-6.90
2018-03-02T23:14:40.829Z,-6.90
2018-03-02T23:32:32.831Z,-7.10
2018-03-02T23:37:11.547Z,-7.10
2018-03-02T23:39:13.547Z,-7.10
2018-03-02T23:41:25.653Z,-7.10
2018-03-02T23:43:36.090Z,-7.10
2018-03-02T23:48:03.873Z,-7.10
2018-03-02T23:50:04.940Z,-7.20
2018-03-02T23:52:13.601Z,-7.20
2018-03-02T23:54:38.044Z,-7.20
2018-03-02T23:56:50.070Z,-7.30
2018-03-02T23:58:51.077Z,-7.30
